Time;durP1;ratioP1;P1;durP2;ratioP2;P2;SDS_P1;SDS_P2;PMS_P1;PMS_P2;Temp;Humidity;BMP_temperature;BMP_pressure;BME280_temperature;BME280_humidity;BME280_pressure;Samples;Min_cycle;Max_cycle;Signal;HPM_P1;HPM_P2
2021/12/01 00:00:22;;;;;;;28.33;20.38;;;9.00;99.90;;;;;;4883483;28;90981;-38
2021/12/01 00:02:53;;;;;;;23.73;21.08;;;9.10;99.90;;;;;;4866200;28;89931;-35
2021/12/01 00:05:20;;;;;;;29.23;19.98;;;9.20;99.90;;;;;;4882389;28;90188;-40
2021/12/01 00:07:46;;;;;;;23.85;20.45;;;9.20;99.90;;;;;;4883326;28;89090;-35
2021/12/01 00:10:11;;;;;;;24.10;19.73;;;9.20;99.90;;;;;;4882957;28;90851;-37
2021/12/01 00:12:37;;;;;;;23.33;20.63;;;9.20;99.90;;;;;;4881492;28;90693;-36
2021/12/01 00:15:06;;;;;;;25.45;20.42;;;9.30;99.90;;;;;;4883378;28;89185;-37
2021/12/01 00:17:32;;;;;;;22.00;19.65;;;9.40;99.90;;;;;;4882962;28;89596;-41
2021/12/01 00:19:59;;;;;;;24.98;20.40;;;9.40;99.90;;;;;;4881970;28;90617;-39
2021/12/01 00:22:25;;;;;;;24.42;20.42;;;9.40;99.90;;;;;;4881338;28;88345;-38
2021/12/01 00:24:51;;;;;;;21.05;18.58;;;9.40;99.90;;;;;;4883502;28;88651;-36
2021/12/01 00:27:16;;;;;;;23.52;20.38;;;9.40;99.90;;;;;;4882579;28;89788;-37
2021/12/01 00:29:42;;;;;;;21.33;18.85;;;9.40;99.90;;;;;;4882561;28;89248;-42
2021/12/01 00:32:08;;;;;;;25.25;19.77;;;9.40;99.90;;;;;;4883279;28;90320;-35
2021/12/01 00:34:34;;;;;;;30.88;21.55;;;9.40;99.90;;;;;;4886457;28;88313;-37
2021/12/01 00:37:00;;;;;;;22.48;20.10;;;9.40;99.90;;;;;;4886717;28;87997;-36
2021/12/01 00:39:25;;;;;;;27.35;21.13;;;9.50;99.90;;;;;;4869419;28;90627;-35
2021/12/01 00:41:52;;;;;;;21.90;17.92;;;9.50;99.90;;;;;;4884920;28;89182;-36
2021/12/01 00:44:18;;;;;;;23.60;19.67;;;9.50;99.90;;;;;;4886071;28;89416;-40
2021/12/01 00:49:27;;;;;;;27.30;22.50;;;9.50;99.90;;;;;;4886206;28;90364;-34
2021/12/01 00:51:53;;;;;;;30.55;23.17;;;9.50;99.90;;;;;;4884311;28;89558;-39
2021/12/01 00:54:19;;;;;;;23.77;20.63;;;9.50;99.90;;;;;;4869736;28;89249;-39
2021/12/01 00:56:45;;;;;;;21.85;19.17;;;9.60;99.90;;;;;;4885848;28;88550;-37
2021/12/01 00:59:11;;;;;;;34.53;23.30;;;9.60;99.90;;;;;;4884649;28;90998;-38
2021/12/01 01:01:37;;;;;;;29.67;24.42;;;9.60;99.90;;;;;;4885637;28;88877;-39
2021/12/01 01:04:03;;;;;;;32.33;25.50;;;9.60;99.90;;;;;;4885302;28;87543;-38
2021/12/01 01:06:29;;;;;;;29.70;24.83;;;9.60;99.90;;;;;;4884776;28;89215;-39
2021/12/01 01:08:54;;;;;;;32.13;27.58;;;9.60;99.90;;;;;;4884598;28;90671;-38
2021/12/01 01:16:35;;;;;;;33.05;25.27;;;9.70;99.90;;;;;;4884475;28;88981;-38
2021/12/01 01:19:03;;;;;;;35.42;26.83;;;9.70;99.90;;;;;;4885772;28;89959;-37
2021/12/01 01:21:36;;;;;;;31.55;25.10;;;9.70;99.90;;;;;;4884749;28;88888;-37
2021/12/01 01:24:03;;;;;;;29.13;23.85;;;9.70;99.90;;;;;;4886108;28;87538;-35
2021/12/01 01:26:30;;;;;;;32.65;25.58;;;9.60;99.90;;;;;;4883544;28;88254;-38
2021/12/01 01:28:56;;;;;;;28.75;25.63;;;9.70;99.90;;;;;;4885413;28;90088;-38
2021/12/01 01:31:22;;;;;;;29.17;25.00;;;9.70;99.90;;;;;;4885409;28;89064;-40
2021/12/01 01:33:49;;;;;;;34.28;23.48;;;9.70;99.90;;;;;;4884858;28;89133;-36
2021/12/01 01:36:14;;;;;;;29.15;23.85;;;9.80;99.90;;;;;;4899676;28;89928;-40
2021/12/01 01:38:41;;;;;;;28.85;23.55;;;9.80;99.90;;;;;;4884407;28;90505;-38
2021/12/01 01:41:09;;;;;;;30.05;22.75;;;9.80;99.90;;;;;;4885164;28;89448;-36
2021/12/01 01:43:36;;;;;;;24.52;21.90;;;9.70;99.90;;;;;;4884455;28;90195;-40
2021/12/01 01:46:03;;;;;;;26.73;22.58;;;9.70;99.90;;;;;;4885288;28;88864;-39
2021/12/01 01:48:31;;;;;;;24.45;21.08;;;9.70;99.90;;;;;;4885008;28;90898;-36
2021/12/01 01:51:01;;;;;;;25.65;22.63;;;9.70;99.90;;;;;;4885174;28;89917;-35
2021/12/01 01:53:28;;;;;;;27.52;19.88;;;9.70;99.90;;;;;;4885067;28;89325;-40
2021/12/01 01:56:05;;;;;;;22.88;19.70;;;9.70;99.90;;;;;;4885202;28;88123;-40
2021/12/01 01:58:32;;;;;;;21.10;18.88;;;9.70;99.90;;;;;;4884507;28;90165;-42
2021/12/01 02:01:07;;;;;;;22.90;19.00;;;9.70;99.90;;;;;;4884533;28;88162;-34
2021/12/01 02:03:42;;;;;;;18.50;16.55;;;9.70;99.90;;;;;;4883914;28;89089;-35
2021/12/01 02:06:09;;;;;;;25.73;18.52;;;9.70;99.90;;;;;;4885436;28;89791;-35
2021/12/01 02:08:37;;;;;;;17.02;14.98;;;9.70;99.90;;;;;;4884534;28;90607;-33
2021/12/01 02:11:11;;;;;;;19.63;17.10;;;9.70;99.90;;;;;;4884519;28;89689;-36
2021/12/01 02:13:39;;;;;;;23.55;17.08;;;9.80;99.90;;;;;;4883596;28;89252;-36
2021/12/01 02:16:05;;;;;;;20.30;15.73;;;9.80;99.90;;;;;;4885190;28;89446;-34
2021/12/01 02:18:30;;;;;;;15.60;13.88;;;9.80;99.90;;;;;;4884505;28;90309;-35
2021/12/01 02:21:05;;;;;;;19.30;15.75;;;9.90;99.90;;;;;;4884680;28;89943;-37
2021/12/01 02:23:32;;;;;;;21.02;15.35;;;9.80;99.90;;;;;;4884297;28;87688;-39
2021/12/01 02:25:57;;;;;;;16.65;13.93;;;9.80;99.90;;;;;;4883192;28;90067;-35
2021/12/01 02:28:23;;;;;;;19.42;14.68;;;9.80;99.90;;;;;;4868017;28;90262;-37
2021/12/01 02:30:49;;;;;;;17.58;13.77;;;9.80;99.90;;;;;;4883998;28;90239;-34
2021/12/01 02:33:15;;;;;;;15.95;12.95;;;9.80;99.90;;;;;;4885216;28;88977;-38
2021/12/01 02:35:40;;;;;;;13.45;12.13;;;9.80;99.90;;;;;;4883788;28;89194;-38
2021/12/01 02:38:06;;;;;;;17.10;13.75;;;9.80;99.90;;;;;;4883308;28;90290;-41
2021/12/01 02:40:33;;;;;;;12.13;10.98;;;9.90;99.90;;;;;;4882923;28;89685;-38
2021/12/01 02:42:59;;;;;;;12.85;11.55;;;9.90;99.90;;;;;;4884419;28;89694;-36
2021/12/01 02:45:24;;;;;;;12.38;11.10;;;9.90;99.90;;;;;;4883007;28;87441;-39
2021/12/01 02:47:50;;;;;;;12.00;10.05;;;9.90;99.90;;;;;;4883636;28;90308;-41
2021/12/01 02:50:16;;;;;;;11.50;10.38;;;9.90;99.90;;;;;;4884251;28;89783;-38
2021/12/01 02:52:41;;;;;;;9.70;8.48;;;10.00;99.90;;;;;;4883558;28;89005;-36
2021/12/01 02:55:10;;;;;;;10.75;9.63;;;9.90;99.90;;;;;;4883853;28;88220;-37
2021/12/01 02:57:53;;;;;;;13.23;10.05;;;9.90;99.90;;;;;;4885073;28;89571;-41
2021/12/01 03:00:22;;;;;;;12.07;9.70;;;9.90;99.90;;;;;;4883798;28;90182;-36
2021/12/01 03:02:50;;;;;;;11.32;9.48;;;10.00;99.90;;;;;;4885071;28;89569;-37
2021/12/01 03:05:16;;;;;;;;;;;10.00;99.90;;;;;;4884977;28;87712;-40
2021/12/01 03:07:42;;;;;;;8.52;7.60;;;10.00;99.90;;;;;;4886383;28;89866;-34
2021/12/01 03:10:10;;;;;;;11.32;8.38;;;10.00;99.90;;;;;;4884717;28;89912;-38
2021/12/01 03:12:38;;;;;;;9.48;7.82;;;10.00;99.90;;;;;;4883492;28;89071;-40
2021/12/01 03:15:09;;;;;;;12.45;8.02;;;10.00;99.90;;;;;;4884070;28;88612;-39
2021/12/01 03:17:34;;;;;;;5.80;5.20;;;10.00;99.90;;;;;;4884318;28;88759;-35
2021/12/01 03:20:01;;;;;;;6.65;5.85;;;10.10;99.90;;;;;;4884700;28;90066;-37
2021/12/01 03:22:27;;;;;;;4.78;3.67;;;10.10;99.90;;;;;;4884621;28;89772;-39
2021/12/01 03:24:53;;;;;;;4.97;3.15;;;10.10;99.90;;;;;;4885082;28;88722;-38
2021/12/01 03:27:20;;;;;;;6.80;3.30;;;10.20;99.90;;;;;;4867496;28;90350;-39
2021/12/01 03:29:47;;;;;;;3.55;2.83;;;10.20;99.90;;;;;;4882907;28;90510;-39
2021/12/01 03:32:13;;;;;;;4.17;3.43;;;10.20;99.90;;;;;;4882875;28;88446;-33
2021/12/01 03:34:41;;;;;;;7.80;2.83;;;10.20;99.90;;;;;;4884807;28;89108;-38
2021/12/01 03:37:08;;;;;;;3.88;2.45;;;10.30;99.90;;;;;;4884996;28;90172;-37
2021/12/01 03:39:33;;;;;;;7.07;2.97;;;10.30;99.90;;;;;;4883277;28;89401;-37
2021/12/01 03:41:59;;;;;;;5.45;3.08;;;10.20;99.90;;;;;;4885134;28;87982;-36
2021/12/01 03:44:25;;;;;;;5.63;3.17;;;10.20;99.90;;;;;;4883868;28;89520;-34
2021/12/01 03:46:52;;;;;;;6.20;3.17;;;10.10;99.90;;;;;;4885193;28;89705;-35
2021/12/01 03:49:17;;;;;;;4.18;2.88;;;10.10;99.90;;;;;;4883704;28;88773;-35
2021/12/01 03:51:43;;;;;;;9.98;2.75;;;10.10;99.90;;;;;;4882108;28;90180;-36
2021/12/01 03:54:09;;;;;;;3.13;2.92;;;10.10;99.90;;;;;;4885005;28;89863;-42
2021/12/01 03:56:34;;;;;;;6.38;3.17;;;10.10;99.90;;;;;;4884369;28;90063;-39
2021/12/01 03:59:02;;;;;;;3.88;2.78;;;10.20;99.90;;;;;;4882960;28;90497;-40
2021/12/01 04:01:28;;;;;;;3.58;2.58;;;10.30;99.90;;;;;;4883281;28;87674;-35
2021/12/01 04:03:54;;;;;;;9.13;4.35;;;10.30;99.90;;;;;;4884213;28;89415;-35
2021/12/01 04:06:19;;;;;;;4.65;4.22;;;10.20;99.90;;;;;;4885604;28;89231;-42
2021/12/01 04:08:46;;;;;;;5.20;4.55;;;10.20;99.90;;;;;;4887689;28;89832;-36
2021/12/01 04:11:12;;;;;;;5.40;4.22;;;10.30;99.90;;;;;;4887602;28;87662;-38
2021/12/01 04:13:37;;;;;;;5.15;4.65;;;10.20;99.90;;;;;;4887592;28;89442;-41
2021/12/01 04:16:03;;;;;;;5.15;4.25;;;10.30;99.90;;;;;;4886667;28;89531;-38
2021/12/01 04:18:29;;;;;;;4.82;3.88;;;10.20;99.90;;;;;;4886780;28;88445;-38
2021/12/01 04:20:54;;;;;;;4.75;4.35;;;10.20;99.90;;;;;;4887821;28;89253;-39
2021/12/01 04:23:20;;;;;;;5.85;4.75;;;10.20;99.90;;;;;;4887958;28;89432;-36
2021/12/01 04:25:46;;;;;;;7.45;4.57;;;10.20;99.90;;;;;;4886948;28;90348;-35
2021/12/01 04:28:12;;;;;;;6.05;5.50;;;10.10;99.90;;;;;;4886377;28;89596;-38
2021/12/01 04:30:38;;;;;;;7.15;4.10;;;10.10;99.90;;;;;;4887069;28;88628;-34
2021/12/01 04:33:04;;;;;;;4.72;3.92;;;10.10;99.90;;;;;;4888057;28;88656;-33
2021/12/01 04:35:30;;;;;;;5.35;3.85;;;10.00;99.90;;;;;;4886903;28;90506;-34
2021/12/01 04:37:56;;;;;;;3.92;3.63;;;10.00;99.90;;;;;;4887685;28;89018;-40
2021/12/01 04:40:22;;;;;;;4.30;3.90;;;10.10;99.90;;;;;;4885880;28;89564;-38
2021/12/01 04:42:47;;;;;;;5.70;4.13;;;10.00;99.90;;;;;;4886436;28;88754;-40
2021/12/01 04:45:16;;;;;;;3.58;3.28;;;10.00;99.90;;;;;;4887294;28;90442;-33
2021/12/01 04:47:44;;;;;;;3.42;3.22;;;10.10;99.90;;;;;;4870154;28;91060;-36
2021/12/01 04:50:11;;;;;;;4.50;4.03;;;10.10;99.90;;;;;;4887038;28;89320;-38
2021/12/01 04:52:36;;;;;;;3.75;3.45;;;10.10;99.90;;;;;;4885221;28;89193;-37
2021/12/01 04:55:03;;;;;;;4.32;3.42;;;10.00;99.90;;;;;;4885962;28;90359;-34
2021/12/01 04:57:29;;;;;;;3.92;3.20;;;10.00;99.90;;;;;;4887319;28;88316;-34
2021/12/01 04:59:55;;;;;;;3.03;2.80;;;10.00;99.90;;;;;;4887856;28;87494;-38
2021/12/01 05:02:20;;;;;;;2.80;2.60;;;9.90;99.90;;;;;;4887499;28;88862;-38
2021/12/01 05:04:46;;;;;;;3.47;3.05;;;9.90;99.90;;;;;;4885806;28;89023;-41
2021/12/01 05:07:13;;;;;;;3.13;2.83;;;9.90;99.90;;;;;;4886903;28;90034;-35
2021/12/01 05:09:39;;;;;;;3.33;3.00;;;10.00;99.90;;;;;;4885540;28;88994;-40
2021/12/01 05:12:07;;;;;;;3.33;2.90;;;9.90;99.90;;;;;;4886969;28;88329;-40
2021/12/01 05:14:37;;;;;;;3.13;2.92;;;9.90;99.90;;;;;;4886774;28;88918;-41
2021/12/01 05:17:04;;;;;;;3.03;2.80;;;9.90;99.90;;;;;;4900984;28;88883;-35
2021/12/01 05:19:30;;;;;;;3.05;2.75;;;9.90;99.90;;;;;;4886594;28;87645;-36
2021/12/01 05:21:55;;;;;;;2.80;2.60;;;9.90;99.90;;;;;;4885407;28;87837;-37
2021/12/01 05:24:21;;;;;;;2.85;2.60;;;9.90;99.90;;;;;;4886988;28;90638;-35
2021/12/01 05:26:47;;;;;;;2.38;2.17;;;9.80;99.90;;;;;;4884528;28;89648;-38
2021/12/01 05:29:12;;;;;;;2.85;2.58;;;9.80;99.90;;;;;;4884954;28;90084;-41
2021/12/01 05:31:38;;;;;;;2.42;1.85;;;9.70;99.90;;;;;;4886621;28;88091;-37
2021/12/01 05:34:04;;;;;;;2.63;2.42;;;9.70;99.90;;;;;;4886149;28;90808;-37
2021/12/01 05:36:30;;;;;;;2.40;2.20;;;9.70;99.90;;;;;;4886700;28;89965;-40
2021/12/01 05:38:56;;;;;;;2.70;2.50;;;9.70;99.90;;;;;;4885286;28;88425;-37
2021/12/01 05:41:22;;;;;;;2.47;2.28;;;9.60;99.90;;;;;;4886314;28;89318;-38
2021/12/01 05:43:47;;;;;;;2.25;2.13;;;9.70;99.90;;;;;;4880907;28;90531;-34
2021/12/01 05:46:13;;;;;;;2.78;2.53;;;9.70;99.90;;;;;;4883284;28;88423;-41
2021/12/01 05:48:39;;;;;;;2.63;2.25;;;9.70;99.90;;;;;;4882460;28;89622;-41
2021/12/01 05:51:05;;;;;;;3.00;1.88;;;9.70;99.90;;;;;;4882238;28;88909;-38
2021/12/01 05:53:31;;;;;;;2.65;2.45;;;9.70;99.90;;;;;;4883209;28;90318;-37
2021/12/01 05:55:57;;;;;;;3.03;2.25;;;9.60;99.90;;;;;;4883362;28;88593;-35
2021/12/01 05:58:22;;;;;;;2.80;2.35;;;9.60;99.90;;;;;;4883271;28;89270;-42
2021/12/01 06:00:48;;;;;;;3.25;2.78;;;9.60;99.90;;;;;;4883878;28;89526;-36
2021/12/01 06:03:14;;;;;;;2.58;2.38;;;9.60;99.90;;;;;;4881961;28;90420;-40
2021/12/01 06:05:40;;;;;;;2.35;2.00;;;9.60;99.90;;;;;;4881143;28;89677;-34
2021/12/01 06:08:05;;;;;;;3.35;2.33;;;9.50;99.90;;;;;;4882580;28;88666;-35
2021/12/01 06:10:31;;;;;;;1.77;1.67;;;9.50;99.90;;;;;;4883136;28;90187;-36
2021/12/01 06:12:57;;;;;;;2.63;2.42;;;9.60;99.90;;;;;;4883046;28;90349;-37
2021/12/01 06:15:22;;;;;;;2.63;2.42;;;9.60;99.90;;;;;;4882400;28;89732;-40
2021/12/01 06:17:48;;;;;;;2.63;2.42;;;9.50;99.90;;;;;;4883217;28;88659;-37
2021/12/01 06:20:14;;;;;;;2.08;1.98;;;9.40;99.90;;;;;;4883324;28;89995;-37
2021/12/01 06:22:42;;;;;;;2.20;2.10;;;9.40;99.90;;;;;;4882317;28;90150;-41
2021/12/01 06:25:08;;;;;;;2.73;1.90;;;9.30;99.90;;;;;;4882422;28;89830;-36
2021/12/01 06:27:34;;;;;;;2.30;2.10;;;9.40;99.90;;;;;;4882429;28;89289;-39
2021/12/01 06:30:00;;;;;;;1.92;1.83;;;9.30;99.90;;;;;;4881601;28;90332;-37
2021/12/01 06:32:26;;;;;;;2.72;2.30;;;9.40;99.90;;;;;;4882266;28;90064;-37
2021/12/01 06:34:51;;;;;;;2.33;2.13;;;9.40;99.90;;;;;;4882514;28;91029;-35
2021/12/01 06:37:18;;;;;;;2.50;2.20;;;9.40;99.90;;;;;;4866977;28;87684;-36
2021/12/01 06:39:44;;;;;;;2.67;2.45;;;9.40;99.90;;;;;;4882160;28;87686;-37
2021/12/01 06:42:10;;;;;;;3.33;2.45;;;9.30;99.90;;;;;;4880702;28;90443;-41
2021/12/01 06:44:35;;;;;;;2.83;2.63;;;9.40;99.90;;;;;;4881177;28;89308;-40
2021/12/01 06:47:02;;;;;;;2.35;2.15;;;9.30;99.90;;;;;;4880785;28;88815;-32
2021/12/01 06:49:28;;;;;;;3.40;3.15;;;9.30;99.90;;;;;;4883001;28;89442;-41
2021/12/01 06:51:54;;;;;;;2.97;2.78;;;9.30;99.90;;;;;;4881490;28;90757;-39
2021/12/01 06:54:20;;;;;;;4.00;3.55;;;9.30;99.90;;;;;;4882485;28;89881;-36
2021/12/01 06:56:45;;;;;;;3.17;2.83;;;9.20;99.90;;;;;;4883109;28;89171;-39
2021/12/01 06:59:11;;;;;;;2.75;2.55;;;9.20;99.90;;;;;;4882937;28;88483;-41
2021/12/01 07:01:37;;;;;;;3.20;3.00;;;9.20;99.90;;;;;;4883424;28;90320;-34
2021/12/01 07:04:03;;;;;;;2.63;2.42;;;9.30;99.90;;;;;;4884910;28;89491;-39
2021/12/01 07:06:28;;;;;;;3.72;3.42;;;9.30;99.90;;;;;;4885038;28;89939;-41
2021/12/01 07:08:59;;;;;;;2.45;2.25;;;9.20;99.90;;;;;;4885448;28;87816;-33
2021/12/01 07:11:24;;;;;;;3.10;2.80;;;9.30;99.90;;;;;;4879989;28;90602;-41
2021/12/01 07:13:50;;;;;;;2.40;2.20;;;9.20;99.90;;;;;;4855854;28;89333;-39
2021/12/01 07:16:16;;;;;;;2.92;2.63;;;9.30;99.90;;;;;;4862140;28;88327;-37
2021/12/01 07:18:42;;;;;;;3.08;2.88;;;9.20;99.90;;;;;;4870116;28;89606;-39
2021/12/01 07:21:07;;;;;;;3.17;2.88;;;9.20;99.90;;;;;;4875438;28;90152;-42
2021/12/01 07:23:33;;;;;;;2.70;2.42;;;9.20;99.90;;;;;;4861408;28;88309;-36
2021/12/01 07:26:00;;;;;;;2.92;2.72;;;9.30;99.90;;;;;;4861238;28;90325;-39
2021/12/01 07:28:25;;;;;;;3.22;2.92;;;9.30;99.90;;;;;;4861792;28;90067;-38
2021/12/01 07:30:51;;;;;;;2.58;2.38;;;9.30;99.90;;;;;;4872517;28;90148;-39
2021/12/01 07:33:16;;;;;;;3.08;2.88;;;9.20;99.90;;;;;;4870833;28;89949;-36
2021/12/01 07:35:42;;;;;;;2.92;2.72;;;9.20;99.90;;;;;;4861031;28;88313;-36
2021/12/01 07:38:08;;;;;;;2.88;2.67;;;9.20;99.90;;;;;;4867429;28;88876;-34
2021/12/01 07:40:33;;;;;;;2.50;2.30;;;9.20;99.90;;;;;;4877282;28;90358;-36
2021/12/01 07:42:59;;;;;;;2.65;2.45;;;9.20;99.90;;;;;;4876599;28;89417;-39
2021/12/01 07:45:24;;;;;;;2.72;2.53;;;9.20;99.90;;;;;;4875712;28;88613;-39
2021/12/01 07:47:50;;;;;;;2.65;2.47;;;9.10;99.90;;;;;;4861709;28;89606;-38
2021/12/01 07:50:16;;;;;;;1.92;1.83;;;9.20;99.90;;;;;;4844264;28;89836;-36
2021/12/01 07:52:42;;;;;;;3.17;2.03;;;9.20;99.90;;;;;;4865838;28;89361;-38
2021/12/01 07:55:08;;;;;;;3.00;2.15;;;9.20;99.90;;;;;;4873003;28;87547;-38
2021/12/01 07:57:34;;;;;;;2.25;2.05;;;9.20;99.90;;;;;;4867166;28;89511;-36
2021/12/01 08:00:00;;;;;;;2.72;2.50;;;9.20;99.90;;;;;;4872695;28;90471;-38
2021/12/01 08:02:26;;;;;;;4.63;2.72;;;9.20;99.90;;;;;;4869364;28;90194;-38
2021/12/01 08:04:53;;;;;;;2.50;2.30;;;9.10;99.90;;;;;;4866370;28;88717;-38
2021/12/01 08:07:19;;;;;;;2.63;2.42;;;9.10;99.90;;;;;;4871319;28;88883;-38
2021/12/01 08:09:45;;;;;;;2.55;2.35;;;9.10;99.90;;;;;;4862297;28;90140;-34
2021/12/01 08:12:11;;;;;;;3.53;2.13;;;9.10;99.90;;;;;;4876810;28;89174;-33
2021/12/01 08:14:37;;;;;;;2.35;2.15;;;9.10;99.90;;;;;;4876877;28;89485;-41
2021/12/01 08:17:03;;;;;;;2.00;1.90;;;9.10;99.90;;;;;;4874197;28;89491;-42
2021/12/01 08:19:29;;;;;;;2.78;2.00;;;9.10;99.90;;;;;;4873562;28;90190;-36
2021/12/01 08:21:55;;;;;;;2.92;2.45;;;9.20;99.90;;;;;;4855722;28;89316;-40
2021/12/01 08:24:20;;;;;;;2.63;2.45;;;9.20;99.90;;;;;;4874303;28;89511;-40
2021/12/01 08:26:47;;;;;;;2.72;2.53;;;9.30;99.90;;;;;;4867957;28;88475;-39
2021/12/01 08:29:12;;;;;;;3.85;3.47;;;9.30;99.90;;;;;;4863511;28;90752;-42
2021/12/01 08:31:39;;;;;;;3.13;2.83;;;9.30;99.90;;;;;;4860837;28;90117;-39
2021/12/01 08:34:05;;;;;;;3.00;2.70;;;9.30;99.90;;;;;;4859481;28;88726;-35
2021/12/01 08:36:31;;;;;;;2.70;2.50;;;9.40;99.90;;;;;;4869071;28;87675;-40
2021/12/01 08:38:57;;;;;;;3.25;2.95;;;9.40;99.90;;;;;;4867303;28;91239;-35
2021/12/01 08:41:23;;;;;;;4.45;3.22;;;9.40;99.90;;;;;;4875254;28;90103;-39
2021/12/01 08:43:48;;;;;;;3.35;3.15;;;9.40;99.90;;;;;;4875011;28;88340;-37
2021/12/01 08:46:14;;;;;;;3.40;3.08;;;9.40;99.90;;;;;;4858097;28;89445;-38
2021/12/01 08:48:40;;;;;;;3.63;3.33;;;9.40;99.90;;;;;;4865146;28;90428;-40
2021/12/01 08:51:06;;;;;;;3.63;3.10;;;9.40;99.90;;;;;;4842470;28;91177;-40
2021/12/01 08:53:35;;;;;;;2.72;2.42;;;9.50;99.90;;;;;;4859832;28;89289;-42
2021/12/01 08:56:01;;;;;;;3.28;3.03;;;9.50;99.90;;;;;;4861981;28;88023;-39
2021/12/01 08:58:27;;;;;;;4.45;3.17;;;9.50;99.90;;;;;;4861701;28;89004;-38
2021/12/01 09:00:55;;;;;;;4.75;4.07;;;9.60;99.90;;;;;;4872908;28;88328;-33
2021/12/01 09:03:21;;;;;;;4.25;3.83;;;9.50;99.90;;;;;;4879055;28;89206;-41
2021/12/01 09:05:48;;;;;;;4.85;3.50;;;9.50;99.90;;;;;;4874515;28;89138;-39
2021/12/01 09:08:15;;;;;;;5.75;4.45;;;9.50;99.90;;;;;;4872541;28;91973;-39
2021/12/01 09:10:41;;;;;;;3.90;3.60;;;9.50;99.90;;;;;;4866466;28;89713;-38
2021/12/01 09:13:07;;;;;;;2.88;2.67;;;9.40;99.90;;;;;;4874673;28;89112;-39
2021/12/01 09:15:34;;;;;;;4.25;3.17;;;9.60;99.90;;;;;;4875816;28;88852;-39
2021/12/01 09:18:00;;;;;;;3.42;3.13;;;9.50;99.90;;;;;;4873086;28;90220;-36
2021/12/01 09:20:27;;;;;;;3.83;3.33;;;9.50;99.90;;;;;;4876469;28;89440;-37
2021/12/01 09:22:53;;;;;;;4.40;3.45;;;9.60;99.90;;;;;;4867837;28;87771;-39
2021/12/01 09:25:19;;;;;;;12.05;3.05;;;9.60;99.90;;;;;;4861237;28;89207;-41
2021/12/01 09:27:46;;;;;;;7.07;3.92;;;9.60;99.90;;;;;;4808949;28;88639;-39
2021/12/01 09:30:13;;;;;;;3.30;3.00;;;9.60;99.90;;;;;;4860357;28;89425;-38
2021/12/01 09:32:39;;;;;;;6.57;2.95;;;9.60;99.90;;;;;;4860058;28;88562;-42
2021/12/01 09:35:10;;;;;;;5.70;2.67;;;9.60;99.90;;;;;;4875168;28;87823;-38
2021/12/01 09:37:36;;;;;;;4.07;2.67;;;9.60;99.90;;;;;;4874706;28;91155;-38
2021/12/01 09:40:12;;;;;;;4.70;2.95;;;9.60;99.90;;;;;;4876644;28;90336;-36
2021/12/01 09:42:40;;;;;;;8.35;2.65;;;9.50;99.90;;;;;;4860362;28;90170;-43
2021/12/01 09:45:06;;;;;;;11.20;3.10;;;9.60;99.90;;;;;;4860959;28;88148;-36
2021/12/01 09:47:32;;;;;;;7.13;3.22;;;9.60;99.90;;;;;;4871227;28;89092;-37
2021/12/01 09:49:58;;;;;;;8.15;2.53;;;9.60;99.90;;;;;;4861330;28;91828;-37
2021/12/01 09:52:23;;;;;;;7.25;2.90;;;9.60;99.90;;;;;;4874275;28;89048;-41
2021/12/01 09:54:50;;;;;;;5.90;2.30;;;9.60;99.90;;;;;;4873108;28;87728;-40
2021/12/01 09:57:16;;;;;;;4.18;2.13;;;9.60;99.90;;;;;;4857670;28;91700;-39
2021/12/01 09:59:43;;;;;;;7.28;2.50;;;9.50;99.90;;;;;;4873475;28;91478;-35
2021/12/01 10:02:11;;;;;;;8.82;3.08;;;9.50;99.90;;;;;;4876545;28;88814;-38
2021/12/01 10:04:37;;;;;;;6.60;2.47;;;9.50;99.90;;;;;;4873504;28;88393;-36
2021/12/01 10:07:32;;;;;;;6.53;2.65;;;9.50;99.90;;;;;;4871280;28;90008;-36
2021/12/01 10:10:06;;;;;;;6.80;2.55;;;9.50;99.90;;;;;;4857701;28;89898;-37
2021/12/01 10:12:49;;;;;;;5.03;2.22;;;9.40;99.90;;;;;;4863309;28;87521;-41
2021/12/01 10:15:31;;;;;;;10.63;2.35;;;9.40;99.90;;;;;;4868331;28;88606;-39
2021/12/01 10:18:11;;;;;;;4.07;2.38;;;9.40;99.90;;;;;;4872104;28;91607;-41
2021/12/01 10:20:37;;;;;;;8.77;2.40;;;9.40;99.90;;;;;;4888458;28;89959;-36
2021/12/01 10:23:14;;;;;;;7.20;2.50;;;9.40;99.90;;;;;;4872582;28;88814;-38
2021/12/01 10:25:41;;;;;;;4.25;2.00;;;9.40;99.90;;;;;;4874472;28;88029;-38
2021/12/01 10:28:13;;;;;;;5.10;1.65;;;9.50;99.90;;;;;;4863661;28;88863;-39
2021/12/01 10:30:46;;;;;;;7.13;2.05;;;9.50;99.90;;;;;;4866361;28;90147;-33
2021/12/01 10:33:15;;;;;;;6.15;2.28;;;9.60;99.90;;;;;;4864033;28;89712;-37
2021/12/01 10:35:41;;;;;;;9.85;2.63;;;9.60;99.90;;;;;;4859211;28;87626;-39
2021/12/01 10:38:08;;;;;;;3.65;2.22;;;9.50;99.90;;;;;;4857341;28;90161;-40
2021/12/01 10:40:37;;;;;;;8.50;2.28;;;9.50;99.90;;;;;;4859410;28;89567;-40
2021/12/01 10:43:10;;;;;;;6.18;1.95;;;9.50;99.90;;;;;;4863168;28;90127;-39
2021/12/01 10:45:42;;;;;;;9.10;2.03;;;9.50;99.90;;;;;;4867194;28;87907;-38
2021/12/01 10:48:10;;;;;;;7.50;2.20;;;9.40;99.90;;;;;;4857906;28;90723;-40
2021/12/01 10:50:41;;;;;;;17.02;2.58;;;9.40;99.90;;;;;;4858719;28;88339;-37
2021/12/01 10:53:19;;;;;;;6.43;2.38;;;9.50;99.90;;;;;;4859233;28;88894;-39
2021/12/01 10:55:49;;;;;;;11.07;1.83;;;9.50;99.90;;;;;;4859436;28;87780;-39
2021/12/01 10:58:16;;;;;;;9.10;2.05;;;9.50;99.90;;;;;;4870375;28;89437;-39
2021/12/01 11:00:47;;;;;;;5.38;2.33;;;9.60;99.90;;;;;;4860288;28;90022;-39
2021/12/01 11:03:18;;;;;;;5.28;2.22;;;9.50;99.90;;;;;;4859756;28;88495;-35
2021/12/01 11:05:45;;;;;;;12.07;2.97;;;9.60;99.90;;;;;;4874439;28;89476;-36
2021/12/01 11:08:13;;;;;;;8.52;2.33;;;9.60;99.90;;;;;;4860076;28;89274;-42
2021/12/01 11:10:39;;;;;;;4.03;1.80;;;9.70;99.90;;;;;;4857188;28;91065;-37
2021/12/01 11:13:06;;;;;;;7.90;2.25;;;9.70;99.90;;;;;;4863038;28;90163;-35
2021/12/01 11:15:33;;;;;;;7.18;2.22;;;9.70;99.90;;;;;;4872151;28;90149;-39
2021/12/01 11:18:00;;;;;;;7.40;2.38;;;9.50;99.90;;;;;;4868196;28;90370;-38
2021/12/01 11:20:43;;;;;;;8.18;2.53;;;9.50;99.90;;;;;;4872948;28;91532;-38
2021/12/01 11:23:08;;;;;;;6.63;2.95;;;9.40;99.90;;;;;;4887776;28;88224;-42
2021/12/01 11:25:37;;;;;;;6.40;2.67;;;9.40;99.90;;;;;;4865220;28;89660;-39
2021/12/01 11:28:08;;;;;;;4.18;2.38;;;9.50;99.90;;;;;;4871329;28;90696;-41
2021/12/01 11:30:37;;;;;;;16.67;3.08;;;9.50;99.90;;;;;;4865727;28;90135;-39
2021/12/01 11:33:03;;;;;;;14.52;3.03;;;9.50;99.90;;;;;;4892734;28;88398;-38
2021/12/01 11:35:30;;;;;;;8.02;3.03;;;9.50;99.90;;;;;;4869033;28;88780;-36
2021/12/01 11:37:56;;;;;;;6.63;2.78;;;9.40;99.90;;;;;;4857207;28;91746;-37
2021/12/01 11:40:23;;;;;;;8.18;3.20;;;9.40;99.90;;;;;;4857418;28;90497;-37
2021/12/01 11:42:49;;;;;;;7.63;2.65;;;9.40;99.90;;;;;;4858525;28;88309;-38
2021/12/01 11:45:15;;;;;;;13.13;2.72;;;9.50;99.90;;;;;;4863791;28;88454;-35
2021/12/01 11:47:46;;;;;;;4.68;2.28;;;9.40;99.90;;;;;;4856390;28;90448;-40
2021/12/01 11:50:23;;;;;;;9.27;2.95;;;9.40;99.90;;;;;;4868581;28;90059;-41
2021/12/01 11:53:22;;;;;;;10.80;3.10;;;9.30;99.90;;;;;;4867663;28;89850;-39
2021/12/01 11:55:52;;;;;;;7.78;2.80;;;9.30;99.90;;;;;;4856118;28;88310;-36
2021/12/01 11:58:56;;;;;;;11.32;2.55;;;9.40;99.90;;;;;;4858651;28;89160;-38
2021/12/01 12:01:22;;;;;;;21.10;4.25;;;9.40;99.90;;;;;;4856499;28;89245;-39
2021/12/01 12:03:53;;;;;;;15.35;4.28;;;9.40;99.90;;;;;;4857903;28;87869;-34
2021/12/01 12:06:19;;;;;;;22.33;4.20;;;9.40;99.90;;;;;;4864050;28;89261;-42
2021/12/01 12:08:53;;;;;;;14.02;3.85;;;9.40;99.90;;;;;;4862531;28;89984;-36
2021/12/01 12:11:39;;;;;;;14.25;3.80;;;9.20;99.90;;;;;;4864647;28;89411;-38
2021/12/01 12:14:09;;;;;;;16.83;4.25;;;9.30;99.90;;;;;;4875577;28;89735;-42
2021/12/01 12:16:36;;;;;;;21.00;3.78;;;9.20;99.90;;;;;;4874764;28;89963;-42
2021/12/01 12:19:03;;;;;;;10.43;3.78;;;9.20;99.90;;;;;;4887647;28;91644;-41
2021/12/01 12:21:50;;;;;;;14.98;4.53;;;9.20;99.90;;;;;;4873339;28;89960;-39
2021/12/01 12:24:19;;;;;;;6.13;3.53;;;9.10;99.90;;;;;;4847778;28;88564;-37
2021/12/01 12:26:52;;;;;;;8.65;3.22;;;9.10;99.90;;;;;;4872724;28;89702;-34
2021/12/01 12:29:21;;;;;;;13.02;3.80;;;9.00;99.90;;;;;;4851253;28;90301;-35
2021/12/01 12:31:50;;;;;;;15.18;3.83;;;9.00;99.90;;;;;;4875396;28;91646;-40
2021/12/01 12:34:19;;;;;;;12.95;3.42;;;8.90;99.90;;;;;;4874547;28;89219;-34
2021/12/01 12:37:00;;;;;;;9.02;3.25;;;8.70;99.90;;;;;;4876251;28;88742;-38
2021/12/01 12:39:32;;;;;;;8.43;2.95;;;8.70;99.90;;;;;;4859855;28;91280;-38
2021/12/01 12:41:58;;;;;;;10.32;3.72;;;8.70;99.90;;;;;;4876243;28;91231;-40
2021/12/01 12:44:38;;;;;;;20.02;4.63;;;8.70;99.90;;;;;;4877635;28;89256;-40
2021/12/01 12:47:10;;;;;;;10.55;4.93;;;8.70;99.90;;;;;;4878097;28;88208;-39
2021/12/01 12:49:46;;;;;;;19.10;4.93;;;8.80;99.90;;;;;;4891392;28;89418;-40
2021/12/01 12:52:28;;;;;;;19.45;3.88;;;8.70;99.90;;;;;;4875403;28;88558;-40
2021/12/01 12:54:54;;;;;;;12.20;4.22;;;8.70;99.90;;;;;;4875003;28;90538;-41
2021/12/01 12:57:22;;;;;;;16.48;5.07;;;8.70;99.90;;;;;;4873126;28;90313;-39
2021/12/01 12:59:48;;;;;;;25.63;4.80;;;8.70;99.90;;;;;;4873538;28;88656;-40